sensor_id;sensor_type;location;lat;lon;timestamp;temperature;humidity
22194;DHT22;11262;50.308;9.270;2022-10-31T00:02:10;12.00;99.90
22194;DHT22;11262;50.308;9.270;2022-10-31T00:04:35;12.00;99.90
22194;DHT22;11262;50.308;9.270;2022-10-31T00:07:01;12.00;99.90
22194;DHT22;11262;50.308;9.270;2022-10-31T00:09:26;12.00;99.90
22194;DHT22;11262;50.308;9.270;2022-10-31T00:11:52;12.10;99.90
22194;DHT22;11262;50.308;9.270;2022-10-31T00:14:18;12.10;99.90
22194;DHT22;11262;50.308;9.270;2022-10-31T00:16:43;12.10;99.90
22194;DHT22;11262;50.308;9.270;2022-10-31T00:19:09;12.10;99.90
22194;DHT22;11262;50.308;9.270;2022-10-31T00:21:34;12.10;99.90
22194;DHT22;11262;50.308;9.270;2022-10-31T00:24:01;12.10;99.90
22194;DHT22;11262;50.308;9.270;2022-10-31T00:26:28;12.10;99.90
22194;DHT22;11262;50.308;9.270;2022-10-31T00:28:53;12.10;99.90
22194;DHT22;11262;50.308;9.270;2022-10-31T00:31:19;12.00;99.90
22194;DHT22;11262;50.308;9.270;2022-10-31T00:33:45;12.10;99.90
22194;DHT22;11262;50.308;9.270;2022-10-31T00:36:13;12.00;99.90
22194;DHT22;11262;50.308;9.270;2022-10-31T00:38:40;12.00;99.90
22194;DHT22;11262;50.308;9.270;2022-10-31T00:41:05;12.00;99.90
22194;DHT22;11262;50.308;9.270;2022-10-31T00:43:31;12.10;99.90
22194;DHT22;11262;50.308;9.270;2022-10-31T00:45:56;12.10;99.90
22194;DHT22;11262;50.308;9.270;2022-10-31T00:48:22;12.00;99.90
22194;DHT22;11262;50.308;9.270;2022-10-31T00:50:48;12.00;99.90
22194;DHT22;11262;50.308;9.270;2022-10-31T00:53:13;11.90;99.90
22194;DHT22;11262;50.308;9.270;2022-10-31T00:55:39;11.90;99.90
22194;DHT22;11262;50.308;9.270;2022-10-31T00:58:05;11.80;99.90
22194;DHT22;11262;50.308;9.270;2022-10-31T01:00:30;11.80;99.90
22194;DHT22;11262;50.308;9.270;2022-10-31T01:02:56;11.70;99.90
22194;DHT22;11262;50.308;9.270;2022-10-31T01:05:21;11.70;99.90
22194;DHT22;11262;50.308;9.270;2022-10-31T01:07:47;11.80;99.90
22194;DHT22;11262;50.308;9.270;2022-10-31T01:10:13;11.80;99.90
22194;DHT22;11262;50.308;9.270;2022-10-31T01:12:40;11.80;99.90
22194;DHT22;11262;50.308;9.270;2022-10-31T01:15:07;11.90;99.90
22194;DHT22;11262;50.308;9.270;2022-10-31T01:17:32;11.90;99.90
22194;DHT22;11262;50.308;9.270;2022-10-31T01:19:58;11.70;99.90
22194;DHT22;11262;50.308;9.270;2022-10-31T01:22:24;11.70;99.90
22194;DHT22;11262;50.308;9.270;2022-10-31T01:24:49;11.60;99.90
22194;DHT22;11262;50.308;9.270;2022-10-31T01:27:15;11.50;99.90
22194;DHT22;11262;50.308;9.270;2022-10-31T01:29:40;11.50;99.90
22194;DHT22;11262;50.308;9.270;2022-10-31T01:32:06;11.50;99.90
22194;DHT22;11262;50.308;9.270;2022-10-31T01:34:31;11.50;99.90
22194;DHT22;11262;50.308;9.270;2022-10-31T01:36:57;11.60;99.90
22194;DHT22;11262;50.308;9.270;2022-10-31T01:39:23;11.50;99.90
22194;DHT22;11262;50.308;9.270;2022-10-31T01:41:51;11.50;99.90
22194;DHT22;11262;50.308;9.270;2022-10-31T01:47:05;11.50;99.90
22194;DHT22;11262;50.308;9.270;2022-10-31T01:49:57;11.50;99.90
22194;DHT22;11262;50.308;9.270;2022-10-31T01:52:30;11.50;99.90
22194;DHT22;11262;50.308;9.270;2022-10-31T01:55:19;11.40;99.90
22194;DHT22;11262;50.308;9.270;2022-10-31T01:57:49;11.40;99.90
22194;DHT22;11262;50.308;9.270;2022-10-31T02:00:15;11.50;99.90
22194;DHT22;11262;50.308;9.270;2022-10-31T02:02:42;11.50;99.90
22194;DHT22;11262;50.308;9.270;2022-10-31T02:05:14;11.50;99.90
22194;DHT22;11262;50.308;9.270;2022-10-31T02:08:03;11.50;99.90
22194;DHT22;11262;50.308;9.270;2022-10-31T02:10:32;11.50;99.90
22194;DHT22;11262;50.308;9.270;2022-10-31T02:13:02;11.50;99.90
22194;DHT22;11262;50.308;9.270;2022-10-31T02:15:29;11.50;99.90
22194;DHT22;11262;50.308;9.270;2022-10-31T02:17:55;11.40;99.90
22194;DHT22;11262;50.308;9.270;2022-10-31T02:20:24;11.40;99.90
22194;DHT22;11262;50.308;9.270;2022-10-31T02:31:27;11.20;99.90
22194;DHT22;11262;50.308;9.270;2022-10-31T02:34:02;11.20;99.90
22194;DHT22;11262;50.308;9.270;2022-10-31T02:36:52;11.20;99.90
22194;DHT22;11262;50.308;9.270;2022-10-31T02:44:51;11.20;99.90
22194;DHT22;11262;50.308;9.270;2022-10-31T02:47:27;11.20;99.90
22194;DHT22;11262;50.308;9.270;2022-10-31T02:50:15;11.20;99.90
22194;DHT22;11262;50.308;9.270;2022-10-31T02:52:43;11.20;99.90
22194;DHT22;11262;50.308;9.270;2022-10-31T02:58:04;11.20;99.90
22194;DHT22;11262;50.308;9.270;2022-10-31T03:00:41;11.20;99.90
22194;DHT22;11262;50.308;9.270;2022-10-31T03:05:59;11.10;99.90
22194;DHT22;11262;50.308;9.270;2022-10-31T03:11:03;11.20;99.90
22194;DHT22;11262;50.308;9.270;2022-10-31T03:13:58;11.20;99.90
22194;DHT22;11262;50.308;9.270;2022-10-31T03:16:45;11.20;99.90
22194;DHT22;11262;50.308;9.270;2022-10-31T03:19:17;11.20;99.90
22194;DHT22;11262;50.308;9.270;2022-10-31T03:21:56;11.30;99.90
22194;DHT22;11262;50.308;9.270;2022-10-31T03:24:26;11.20;99.90
22194;DHT22;11262;50.308;9.270;2022-10-31T03:26:56;11.20;99.90
22194;DHT22;11262;50.308;9.270;2022-10-31T03:29:26;11.20;99.90
22194;DHT22;11262;50.308;9.270;2022-10-31T03:32:34;11.20;99.90
22194;DHT22;11262;50.308;9.270;2022-10-31T03:35:03;11.20;99.90
22194;DHT22;11262;50.308;9.270;2022-10-31T03:37:32;11.20;99.90
22194;DHT22;11262;50.308;9.270;2022-10-31T03:39:59;11.10;99.90
22194;DHT22;11262;50.308;9.270;2022-10-31T03:42:29;11.10;99.90
22194;DHT22;11262;50.308;9.270;2022-10-31T03:45:18;11.20;99.90
22194;DHT22;11262;50.308;9.270;2022-10-31T03:47:46;11.20;99.90
22194;DHT22;11262;50.308;9.270;2022-10-31T03:50:14;11.20;99.90
22194;DHT22;11262;50.308;9.270;2022-10-31T03:55:19;11.20;99.90
22194;DHT22;11262;50.308;9.270;2022-10-31T03:57:57;11.20;99.90
22194;DHT22;11262;50.308;9.270;2022-10-31T04:00:24;11.30;99.90
22194;DHT22;11262;50.308;9.270;2022-10-31T04:03:00;11.30;99.90
22194;DHT22;11262;50.308;9.270;2022-10-31T04:05:30;11.30;99.90
22194;DHT22;11262;50.308;9.270;2022-10-31T04:07:57;11.30;99.90
22194;DHT22;11262;50.308;9.270;2022-10-31T04:10:26;11.30;99.90
22194;DHT22;11262;50.308;9.270;2022-10-31T04:12:56;11.30;99.90
22194;DHT22;11262;50.308;9.270;2022-10-31T04:15:23;11.30;99.90
22194;DHT22;11262;50.308;9.270;2022-10-31T04:17:53;11.30;99.90
22194;DHT22;11262;50.308;9.270;2022-10-31T04:20:29;11.20;99.90
22194;DHT22;11262;50.308;9.270;2022-10-31T04:22:55;11.10;99.90
22194;DHT22;11262;50.308;9.270;2022-10-31T04:25:21;11.10;99.90
22194;DHT22;11262;50.308;9.270;2022-10-31T04:27:46;11.10;99.90
22194;DHT22;11262;50.308;9.270;2022-10-31T04:30:12;11.10;99.90
22194;DHT22;11262;50.308;9.270;2022-10-31T04:32:37;11.10;99.90
22194;DHT22;11262;50.308;9.270;2022-10-31T04:35:03;11.10;99.90
22194;DHT22;11262;50.308;9.270;2022-10-31T04:37:29;11.00;99.90
22194;DHT22;11262;50.308;9.270;2022-10-31T04:39:54;10.90;99.90
22194;DHT22;11262;50.308;9.270;2022-10-31T04:42:20;10.90;99.90
22194;DHT22;11262;50.308;9.270;2022-10-31T04:44:45;10.80;99.90
22194;DHT22;11262;50.308;9.270;2022-10-31T04:47:11;10.80;99.90
22194;DHT22;11262;50.308;9.270;2022-10-31T04:49:37;10.80;99.90
22194;DHT22;11262;50.308;9.270;2022-10-31T04:52:02;10.70;99.90
22194;DHT22;11262;50.308;9.270;2022-10-31T04:54:28;10.70;99.90
22194;DHT22;11262;50.308;9.270;2022-10-31T04:56:53;10.70;99.90
22194;DHT22;11262;50.308;9.270;2022-10-31T04:59:19;10.70;99.90
22194;DHT22;11262;50.308;9.270;2022-10-31T05:01:44;10.70;99.90
22194;DHT22;11262;50.308;9.270;2022-10-31T05:04:10;10.70;99.90
22194;DHT22;11262;50.308;9.270;2022-10-31T05:06:36;10.70;99.90
22194;DHT22;11262;50.308;9.270;2022-10-31T05:09:01;10.70;99.90
22194;DHT22;11262;50.308;9.270;2022-10-31T05:11:27;10.70;99.90
22194;DHT22;11262;50.308;9.270;2022-10-31T05:13:52;10.70;99.90
22194;DHT22;11262;50.308;9.270;2022-10-31T05:16:18;10.70;99.90
22194;DHT22;11262;50.308;9.270;2022-10-31T05:18:44;10.70;99.90
22194;DHT22;11262;50.308;9.270;2022-10-31T05:21:09;10.70;99.90
22194;DHT22;11262;50.308;9.270;2022-10-31T05:23:35;10.70;99.90
22194;DHT22;11262;50.308;9.270;2022-10-31T05:26:00;10.80;99.90
22194;DHT22;11262;50.308;9.270;2022-10-31T05:28:26;10.80;99.90
22194;DHT22;11262;50.308;9.270;2022-10-31T05:30:51;10.70;99.90
22194;DHT22;11262;50.308;9.270;2022-10-31T05:33:17;10.80;99.90
22194;DHT22;11262;50.308;9.270;2022-10-31T05:35:43;10.70;99.90
22194;DHT22;11262;50.308;9.270;2022-10-31T05:38:08;10.70;99.90
22194;DHT22;11262;50.308;9.270;2022-10-31T05:40:34;10.70;99.90
22194;DHT22;11262;50.308;9.270;2022-10-31T05:42:59;10.80;99.90
22194;DHT22;11262;50.308;9.270;2022-10-31T05:45:25;10.80;99.90
22194;DHT22;11262;50.308;9.270;2022-10-31T05:47:58;10.90;99.90
22194;DHT22;11262;50.308;9.270;2022-10-31T05:50:25;10.90;99.90
22194;DHT22;11262;50.308;9.270;2022-10-31T05:52:59;10.90;99.90
22194;DHT22;11262;50.308;9.270;2022-10-31T05:55:25;10.80;99.90
22194;DHT22;11262;50.308;9.270;2022-10-31T05:57:52;10.80;99.90
22194;DHT22;11262;50.308;9.270;2022-10-31T06:00:18;10.90;99.90
22194;DHT22;11262;50.308;9.270;2022-10-31T06:02:44;10.90;99.90
22194;DHT22;11262;50.308;9.270;2022-10-31T06:05:09;10.90;99.90
22194;DHT22;11262;50.308;9.270;2022-10-31T06:07:35;10.90;99.90
22194;DHT22;11262;50.308;9.270;2022-10-31T06:10:03;10.90;99.90
22194;DHT22;11262;50.308;9.270;2022-10-31T06:12:29;10.80;99.90
22194;DHT22;11262;50.308;9.270;2022-10-31T06:14:55;10.90;99.90
22194;DHT22;11262;50.308;9.270;2022-10-31T06:17:20;10.80;99.90
22194;DHT22;11262;50.308;9.270;2022-10-31T06:19:46;10.80;99.90
22194;DHT22;11262;50.308;9.270;2022-10-31T06:22:12;10.80;99.90
22194;DHT22;11262;50.308;9.270;2022-10-31T06:24:38;10.80;99.90
22194;DHT22;11262;50.308;9.270;2022-10-31T06:27:04;10.90;99.90
22194;DHT22;11262;50.308;9.270;2022-10-31T06:29:29;11.00;99.90
22194;DHT22;11262;50.308;9.270;2022-10-31T06:31:55;11.00;99.90
22194;DHT22;11262;50.308;9.270;2022-10-31T06:34:21;10.90;99.90
22194;DHT22;11262;50.308;9.270;2022-10-31T06:36:47;11.00;99.90
22194;DHT22;11262;50.308;9.270;2022-10-31T06:39:13;11.00;99.90
22194;DHT22;11262;50.308;9.270;2022-10-31T06:41:38;11.00;99.90
22194;DHT22;11262;50.308;9.270;2022-10-31T06:44:05;10.90;99.90
22194;DHT22;11262;50.308;9.270;2022-10-31T06:46:31;11.00;99.90
22194;DHT22;11262;50.308;9.270;2022-10-31T06:48:57;11.00;99.90
22194;DHT22;11262;50.308;9.270;2022-10-31T06:51:22;11.00;99.90
22194;DHT22;11262;50.308;9.270;2022-10-31T06:53:48;11.10;99.90
22194;DHT22;11262;50.308;9.270;2022-10-31T06:56:14;11.10;99.90
22194;DHT22;11262;50.308;9.270;2022-10-31T06:58:39;11.20;99.90
22194;DHT22;11262;50.308;9.270;2022-10-31T07:01:05;11.20;99.90
22194;DHT22;11262;50.308;9.270;2022-10-31T07:03:31;11.30;99.90
22194;DHT22;11262;50.308;9.270;2022-10-31T07:05:57;11.40;99.90
22194;DHT22;11262;50.308;9.270;2022-10-31T07:08:23;11.50;99.90
22194;DHT22;11262;50.308;9.270;2022-10-31T07:10:56;11.60;99.90
22194;DHT22;11262;50.308;9.270;2022-10-31T07:13:23;11.70;99.90
22194;DHT22;11262;50.308;9.270;2022-10-31T07:15:54;11.80;99.90
22194;DHT22;11262;50.308;9.270;2022-10-31T07:18:20;11.90;99.90
22194;DHT22;11262;50.308;9.270;2022-10-31T07:20:47;12.00;99.90
22194;DHT22;11262;50.308;9.270;2022-10-31T07:23:13;12.10;99.90
22194;DHT22;11262;50.308;9.270;2022-10-31T07:25:39;12.20;99.90
22194;DHT22;11262;50.308;9.270;2022-10-31T07:28:05;12.20;99.90
22194;DHT22;11262;50.308;9.270;2022-10-31T07:30:31;12.30;99.90
22194;DHT22;11262;50.308;9.270;2022-10-31T07:32:57;12.40;99.90
22194;DHT22;11262;50.308;9.270;2022-10-31T07:35:24;12.50;99.90
22194;DHT22;11262;50.308;9.270;2022-10-31T07:37:51;12.50;99.90
22194;DHT22;11262;50.308;9.270;2022-10-31T07:40:17;12.60;99.90
22194;DHT22;11262;50.308;9.270;2022-10-31T07:42:45;12.60;99.90
22194;DHT22;11262;50.308;9.270;2022-10-31T07:45:14;12.70;99.90
22194;DHT22;11262;50.308;9.270;2022-10-31T07:47:41;12.80;99.90
22194;DHT22;11262;50.308;9.270;2022-10-31T07:50:08;12.80;99.90
22194;DHT22;11262;50.308;9.270;2022-10-31T07:52:34;12.90;99.90
22194;DHT22;11262;50.308;9.270;2022-10-31T07:54:59;13.00;99.90
22194;DHT22;11262;50.308;9.270;2022-10-31T07:57:25;13.20;99.90
22194;DHT22;11262;50.308;9.270;2022-10-31T07:59:51;13.30;99.90
22194;DHT22;11262;50.308;9.270;2022-10-31T08:02:17;13.50;99.90
22194;DHT22;11262;50.308;9.270;2022-10-31T08:04:42;13.50;99.90
22194;DHT22;11262;50.308;9.270;2022-10-31T08:07:08;13.60;99.90
22194;DHT22;11262;50.308;9.270;2022-10-31T08:09:34;13.50;99.90
22194;DHT22;11262;50.308;9.270;2022-10-31T08:11:59;13.60;99.90
22194;DHT22;11262;50.308;9.270;2022-10-31T08:14:25;13.60;99.90
22194;DHT22;11262;50.308;9.270;2022-10-31T08:16:52;13.70;99.90
22194;DHT22;11262;50.308;9.270;2022-10-31T08:19:18;13.80;99.90
22194;DHT22;11262;50.308;9.270;2022-10-31T08:21:43;14.00;99.90
22194;DHT22;11262;50.308;9.270;2022-10-31T08:24:09;14.10;99.90
22194;DHT22;11262;50.308;9.270;2022-10-31T08:26:35;14.30;99.90
22194;DHT22;11262;50.308;9.270;2022-10-31T08:29:00;14.30;99.90
22194;DHT22;11262;50.308;9.270;2022-10-31T08:31:27;14.40;99.90
22194;DHT22;11262;50.308;9.270;2022-10-31T08:33:53;14.40;99.90
22194;DHT22;11262;50.308;9.270;2022-10-31T08:36:22;14.30;99.90
22194;DHT22;11262;50.308;9.270;2022-10-31T08:38:47;14.30;99.90
22194;DHT22;11262;50.308;9.270;2022-10-31T08:41:13;14.30;99.90
22194;DHT22;11262;50.308;9.270;2022-10-31T08:43:39;14.30;99.90
22194;DHT22;11262;50.308;9.270;2022-10-31T08:46:05;14.30;99.90
22194;DHT22;11262;50.308;9.270;2022-10-31T08:48:31;14.30;99.90
22194;DHT22;11262;50.308;9.270;2022-10-31T08:50:58;14.30;99.90
22194;DHT22;11262;50.308;9.270;2022-10-31T08:53:25;14.30;99.90
22194;DHT22;11262;50.308;9.270;2022-10-31T08:55:53;14.30;99.90
22194;DHT22;11262;50.308;9.270;2022-10-31T08:58:20;14.30;99.90
22194;DHT22;11262;50.308;9.270;2022-10-31T09:00:47;14.30;99.90
22194;DHT22;11262;50.308;9.270;2022-10-31T09:03:20;14.30;99.90
22194;DHT22;11262;50.308;9.270;2022-10-31T09:05:46;14.30;99.90
22194;DHT22;11262;50.308;9.270;2022-10-31T09:08:13;14.40;99.90
22194;DHT22;11262;50.308;9.270;2022-10-31T09:10:39;14.40;99.90
22194;DHT22;11262;50.308;9.270;2022-10-31T09:13:10;14.50;99.90
22194;DHT22;11262;50.308;9.270;2022-10-31T09:15:39;14.50;99.90
22194;DHT22;11262;50.308;9.270;2022-10-31T09:18:06;14.50;99.90
22194;DHT22;11262;50.308;9.270;2022-10-31T09:20:33;14.60;99.90
22194;DHT22;11262;50.308;9.270;2022-10-31T09:23:05;14.70;99.90
22194;DHT22;11262;50.308;9.270;2022-10-31T09:25:32;14.70;99.90
22194;DHT22;11262;50.308;9.270;2022-10-31T09:27:59;14.80;99.90
22194;DHT22;11262;50.308;9.270;2022-10-31T09:30:30;14.90;99.90
22194;DHT22;11262;50.308;9.270;2022-10-31T09:32:57;15.00;99.90
22194;DHT22;11262;50.308;9.270;2022-10-31T09:35:24;15.10;99.90
22194;DHT22;11262;50.308;9.270;2022-10-31T09:37:59;15.20;99.90
22194;DHT22;11262;50.308;9.270;2022-10-31T09:41:01;15.30;99.90
22194;DHT22;11262;50.308;9.270;2022-10-31T09:44:13;15.60;99.90
22194;DHT22;11262;50.308;9.270;2022-10-31T09:46:41;16.10;99.90
22194;DHT22;11262;50.308;9.270;2022-10-31T09:51:41;16.50;99.90
22194;DHT22;11262;50.308;9.270;2022-10-31T09:54:16;16.50;99.90
22194;DHT22;11262;50.308;9.270;2022-10-31T09:56:43;16.70;99.90
22194;DHT22;11262;50.308;9.270;2022-10-31T09:59:35;16.90;99.90
22194;DHT22;11262;50.308;9.270;2022-10-31T10:02:19;17.30;99.90
22194;DHT22;11262;50.308;9.270;2022-10-31T10:04:55;17.50;99.90
22194;DHT22;11262;50.308;9.270;2022-10-31T10:07:45;17.90;99.90
22194;DHT22;11262;50.308;9.270;2022-10-31T10:10:46;18.20;99.90
22194;DHT22;11262;50.308;9.270;2022-10-31T10:16:03;18.50;99.90
22194;DHT22;11262;50.308;9.270;2022-10-31T10:30:13;19.30;99.90
22194;DHT22;11262;50.308;9.270;2022-10-31T10:35:22;19.30;99.90
22194;DHT22;11262;50.308;9.270;2022-10-31T10:37:51;19.20;99.90
22194;DHT22;11262;50.308;9.270;2022-10-31T10:40:21;19.30;99.90
22194;DHT22;11262;50.308;9.270;2022-10-31T10:49:17;19.40;99.90
22194;DHT22;11262;50.308;9.270;2022-10-31T10:51:45;19.50;99.90
22194;DHT22;11262;50.308;9.270;2022-10-31T10:59:21;19.50;99.90
22194;DHT22;11262;50.308;9.270;2022-10-31T11:01:49;19.50;99.90
22194;DHT22;11262;50.308;9.270;2022-10-31T11:04:27;19.60;99.90
22194;DHT22;11262;50.308;9.270;2022-10-31T11:07:03;19.50;99.90
22194;DHT22;11262;50.308;9.270;2022-10-31T11:09:29;19.60;99.90
22194;DHT22;11262;50.308;9.270;2022-10-31T11:11:55;19.60;99.90
22194;DHT22;11262;50.308;9.270;2022-10-31T11:14:22;19.70;99.90
22194;DHT22;11262;50.308;9.270;2022-10-31T11:17:06;19.70;99.90
22194;DHT22;11262;50.308;9.270;2022-10-31T11:19:33;19.70;99.90
22194;DHT22;11262;50.308;9.270;2022-10-31T11:22:15;19.70;99.90
22194;DHT22;11262;50.308;9.270;2022-10-31T11:24:41;19.70;99.90
22194;DHT22;11262;50.308;9.270;2022-10-31T11:27:20;19.70;99.90
22194;DHT22;11262;50.308;9.270;2022-10-31T11:29:46;19.60;99.90
22194;DHT22;11262;50.308;9.270;2022-10-31T11:32:23;19.50;99.90
22194;DHT22;11262;50.308;9.270;2022-10-31T11:34:58;19.50;99.90
22194;DHT22;11262;50.308;9.270;2022-10-31T11:37:29;19.50;99.90
22194;DHT22;11262;50.308;9.270;2022-10-31T11:39:59;19.50;99.90
22194;DHT22;11262;50.308;9.270;2022-10-31T11:42:40;19.50;99.90
22194;DHT22;11262;50.308;9.270;2022-10-31T11:45:15;19.50;99.90
22194;DHT22;11262;50.308;9.270;2022-10-31T11:47:47;19.50;99.90
22194;DHT22;11262;50.308;9.270;2022-10-31T11:50:23;19.50;99.90
22194;DHT22;11262;50.308;9.270;2022-10-31T11:52:51;19.50;99.90
22194;DHT22;11262;50.308;9.270;2022-10-31T11:57:57;19.60;99.90
22194;DHT22;11262;50.308;9.270;2022-10-31T12:00:27;19.60;99.90
22194;DHT22;11262;50.308;9.270;2022-10-31T12:06:02;19.70;99.90
22194;DHT22;11262;50.308;9.270;2022-10-31T12:08:31;19.60;99.90
22194;DHT22;11262;50.308;9.270;2022-10-31T12:11:27;19.70;99.90
22194;DHT22;11262;50.308;9.270;2022-10-31T12:33:34;19.40;99.90
22194;DHT22;11262;50.308;9.270;2022-10-31T12:38:54;19.50;99.90
22194;DHT22;11262;50.308;9.270;2022-10-31T12:52:48;19.30;99.90
22194;DHT22;11262;50.308;9.270;2022-10-31T12:55:43;19.30;99.90
22194;DHT22;11262;50.308;9.270;2022-10-31T12:58:29;19.30;99.90
22194;DHT22;11262;50.308;9.270;2022-10-31T13:01:14;19.30;99.90
22194;DHT22;11262;50.308;9.270;2022-10-31T13:04:12;19.20;99.90
22194;DHT22;11262;50.308;9.270;2022-10-31T13:06:48;19.20;99.90
22194;DHT22;11262;50.308;9.270;2022-10-31T13:09:42;19.30;99.90
22194;DHT22;11262;50.308;9.270;2022-10-31T13:12:14;19.40;99.90
22194;DHT22;11262;50.308;9.270;2022-10-31T13:14:53;19.50;99.90
22194;DHT22;11262;50.308;9.270;2022-10-31T13:17:33;19.60;99.90
22194;DHT22;11262;50.308;9.270;2022-10-31T13:20:23;19.60;99.90
22194;DHT22;11262;50.308;9.270;2022-10-31T13:25:52;19.50;99.90
22194;DHT22;11262;50.308;9.270;2022-10-31T13:28:31;19.50;99.90
22194;DHT22;11262;50.308;9.270;2022-10-31T13:30:59;19.40;99.90
22194;DHT22;11262;50.308;9.270;2022-10-31T13:33:42;19.40;99.90
22194;DHT22;11262;50.308;9.270;2022-10-31T13:44:20;19.40;99.90
22194;DHT22;11262;50.308;9.270;2022-10-31T13:46:49;19.40;99.90
22194;DHT22;11262;50.308;9.270;2022-10-31T13:57:17;19.10;99.90
22194;DHT22;11262;50.308;9.270;2022-10-31T13:59:49;19.10;99.90
22194;DHT22;11262;50.308;9.270;2022-10-31T14:02:17;19.10;99.90
22194;DHT22;11262;50.308;9.270;2022-10-31T14:04:54;19.00;99.90
22194;DHT22;11262;50.308;9.270;2022-10-31T14:07:22;18.90;99.90
22194;DHT22;11262;50.308;9.270;2022-10-31T14:12:42;18.80;99.90
22194;DHT22;11262;50.308;9.270;2022-10-31T14:17:52;18.70;99.90
22194;DHT22;11262;50.308;9.270;2022-10-31T14:20:21;18.70;99.90
22194;DHT22;11262;50.308;9.270;2022-10-31T14:22:47;18.60;99.90
22194;DHT22;11262;50.308;9.270;2022-10-31T14:25:33;18.50;99.90
22194;DHT22;11262;50.308;9.270;2022-10-31T14:28:51;18.50;99.90
22194;DHT22;11262;50.308;9.270;2022-10-31T14:30:57;18.50;99.90
22194;DHT22;11262;50.308;9.270;2022-10-31T14:33:26;18.50;99.90
22194;DHT22;11262;50.308;9.270;2022-10-31T14:36:20;18.40;99.90
22194;DHT22;11262;50.308;9.270;2022-10-31T14:39:04;18.30;99.90
22194;DHT22;11262;50.308;9.270;2022-10-31T14:41:54;18.30;99.90
22194;DHT22;11262;50.308;9.270;2022-10-31T14:47:22;18.20;99.90
22194;DHT22;11262;50.308;9.270;2022-10-31T14:50:17;18.10;99.90
22194;DHT22;11262;50.308;9.270;2022-10-31T14:52:51;18.10;99.90
22194;DHT22;11262;50.308;9.270;2022-10-31T14:55:19;18.10;99.90
22194;DHT22;11262;50.308;9.270;2022-10-31T14:57:56;18.00;99.90
22194;DHT22;11262;50.308;9.270;2022-10-31T15:00:23;17.90;99.90
22194;DHT22;11262;50.308;9.270;2022-10-31T15:03:14;17.90;99.90
22194;DHT22;11262;50.308;9.270;2022-10-31T15:05:52;17.90;99.90
22194;DHT22;11262;50.308;9.270;2022-10-31T15:08:33;17.80;99.90
22194;DHT22;11262;50.308;9.270;2022-10-31T15:11:03;17.80;99.90
22194;DHT22;11262;50.308;9.270;2022-10-31T15:13:28;17.80;99.90
22194;DHT22;11262;50.308;9.270;2022-10-31T15:15:55;18.30;99.90
22194;DHT22;11262;50.308;9.270;2022-10-31T15:18:24;19.30;99.90
22194;DHT22;11262;50.308;9.270;2022-10-31T15:20:51;20.10;99.90
22194;DHT22;11262;50.308;9.270;2022-10-31T15:23:24;20.30;99.90
22194;DHT22;11262;50.308;9.270;2022-10-31T15:25:50;19.80;99.90
22194;DHT22;11262;50.308;9.270;2022-10-31T15:28:24;19.40;99.90
22194;DHT22;11262;50.308;9.270;2022-10-31T15:30:52;19.10;99.90
22194;DHT22;11262;50.308;9.270;2022-10-31T15:33:26;18.90;99.90
22194;DHT22;11262;50.308;9.270;2022-10-31T15:35:58;18.60;99.90
22194;DHT22;11262;50.308;9.270;2022-10-31T15:38:25;18.40;99.90
22194;DHT22;11262;50.308;9.270;2022-10-31T15:41:04;18.20;99.90
22194;DHT22;11262;50.308;9.270;2022-10-31T15:43:36;18.10;99.90
22194;DHT22;11262;50.308;9.270;2022-10-31T15:46:06;17.90;99.90
22194;DHT22;11262;50.308;9.270;2022-10-31T15:48:32;17.80;99.90
22194;DHT22;11262;50.308;9.270;2022-10-31T15:50:59;17.70;99.90
22194;DHT22;11262;50.308;9.270;2022-10-31T15:53:47;17.70;99.90
22194;DHT22;11262;50.308;9.270;2022-10-31T15:56:20;17.60;99.90
22194;DHT22;11262;50.308;9.270;2022-10-31T15:58:48;17.50;99.90
22194;DHT22;11262;50.308;9.270;2022-10-31T16:01:28;17.40;99.90
22194;DHT22;11262;50.308;9.270;2022-10-31T16:06:38;17.30;99.90
22194;DHT22;11262;50.308;9.270;2022-10-31T16:09:21;17.20;99.90
22194;DHT22;11262;50.308;9.270;2022-10-31T16:11:47;17.10;99.90
22194;DHT22;11262;50.308;9.270;2022-10-31T16:14:16;17.00;99.90
22194;DHT22;11262;50.308;9.270;2022-10-31T16:16:48;16.90;99.90
22194;DHT22;11262;50.308;9.270;2022-10-31T16:19:34;16.80;99.90
22194;DHT22;11262;50.308;9.270;2022-10-31T16:22:10;16.80;99.90
22194;DHT22;11262;50.308;9.270;2022-10-31T16:25:02;16.80;99.90
22194;DHT22;11262;50.308;9.270;2022-10-31T16:27:31;16.60;99.90
22194;DHT22;11262;50.308;9.270;2022-10-31T16:29:59;16.60;99.90
22194;DHT22;11262;50.308;9.270;2022-10-31T16:32:52;16.50;99.90
22194;DHT22;11262;50.308;9.270;2022-10-31T16:37:57;16.20;99.90
22194;DHT22;11262;50.308;9.270;2022-10-31T16:40:23;16.10;99.90
22194;DHT22;11262;50.308;9.270;2022-10-31T16:42:49;16.10;99.90
22194;DHT22;11262;50.308;9.270;2022-10-31T16:45:30;15.90;99.90
22194;DHT22;11262;50.308;9.270;2022-10-31T16:48:04;15.80;99.90
22194;DHT22;11262;50.308;9.270;2022-10-31T16:50:30;15.70;99.90
22194;DHT22;11262;50.308;9.270;2022-10-31T16:52:56;15.60;99.90
22194;DHT22;11262;50.308;9.270;2022-10-31T16:55:22;15.70;99.90
22194;DHT22;11262;50.308;9.270;2022-10-31T16:57:53;15.70;99.90
22194;DHT22;11262;50.308;9.270;2022-10-31T17:00:22;15.70;99.90
22194;DHT22;11262;50.308;9.270;2022-10-31T17:02:50;15.80;99.90
22194;DHT22;11262;50.308;9.270;2022-10-31T17:05:17;15.90;99.90
22194;DHT22;11262;50.308;9.270;2022-10-31T17:07:43;15.80;99.90
22194;DHT22;11262;50.308;9.270;2022-10-31T17:10:11;15.80;99.90
22194;DHT22;11262;50.308;9.270;2022-10-31T17:12:40;15.70;99.90
22194;DHT22;11262;50.308;9.270;2022-10-31T17:15:18;15.60;99.90
22194;DHT22;11262;50.308;9.270;2022-10-31T17:17:44;15.50;99.90
22194;DHT22;11262;50.308;9.270;2022-10-31T17:20:29;15.50;99.90
22194;DHT22;11262;50.308;9.270;2022-10-31T17:22:55;15.50;99.90
22194;DHT22;11262;50.308;9.270;2022-10-31T17:25:27;15.40;99.90
22194;DHT22;11262;50.308;9.270;2022-10-31T17:27:53;15.30;99.90
22194;DHT22;11262;50.308;9.270;2022-10-31T17:30:20;15.30;99.90
22194;DHT22;11262;50.308;9.270;2022-10-31T17:32:47;15.20;99.90
22194;DHT22;11262;50.308;9.270;2022-10-31T17:35:13;15.20;99.90
22194;DHT22;11262;50.308;9.270;2022-10-31T17:37:40;15.20;99.90
22194;DHT22;11262;50.308;9.270;2022-10-31T17:40:10;15.10;99.90
22194;DHT22;11262;50.308;9.270;2022-10-31T17:42:36;15.00;99.90
22194;DHT22;11262;50.308;9.270;2022-10-31T17:45:03;14.90;99.90
22194;DHT22;11262;50.308;9.270;2022-10-31T17:47:29;14.90;99.90
22194;DHT22;11262;50.308;9.270;2022-10-31T17:49:54;14.90;99.90
22194;DHT22;11262;50.308;9.270;2022-10-31T17:52:20;14.90;99.90
22194;DHT22;11262;50.308;9.270;2022-10-31T17:54:46;14.90;99.90
22194;DHT22;11262;50.308;9.270;2022-10-31T17:57:11;14.90;99.90
22194;DHT22;11262;50.308;9.270;2022-10-31T17:59:37;14.80;99.90
22194;DHT22;11262;50.308;9.270;2022-10-31T18:02:03;14.80;99.90